createdAt,value
2017-07-18T00:01:43.567Z,19.30
2017-07-18T00:04:10.993Z,19.30
2017-07-18T00:06:38.765Z,19.20
2017-07-18T00:09:10.693Z,19.30
2017-07-18T00:11:39.817Z,19.30
2017-07-18T00:14:14.076Z,19.30
2017-07-18T00:16:41.542Z,19.30
2017-07-18T00:19:08.524Z,19.20
2017-07-18T00:21:36.296Z,19.20
2017-07-18T00:24:05.890Z,19.10
2017-07-18T00:26:33.646Z,19.10
2017-07-18T00:29:01.320Z,19.10
2017-07-18T00:31:29.848Z,19.10
2017-07-18T00:33:57.392Z,19.00
2017-07-18T00:36:24.949Z,19.00
2017-07-18T00:38:52.863Z,18.90
2017-07-18T00:41:21.697Z,18.90
2017-07-18T00:43:49.438Z,19.00
2017-07-18T00:46:16.802Z,18.90
2017-07-18T00:48:44.092Z,18.90
2017-07-18T00:51:11.742Z,18.90
2017-07-18T00:53:39.464Z,18.80
2017-07-18T00:56:06.588Z,18.80
2017-07-18T00:58:34.176Z,18.80
2017-07-18T01:01:01.794Z,18.80
2017-07-18T01:03:29.835Z,18.80
2017-07-18T01:06:00.973Z,18.80
2017-07-18T01:08:28.995Z,18.70
2017-07-18T01:10:57.423Z,18.70
2017-07-18T01:13:24.528Z,18.70
2017-07-18T01:15:52.305Z,18.70
2017-07-18T01:18:21.717Z,18.60
2017-07-18T01:20:50.017Z,18.60
2017-07-18T01:23:17.443Z,18.70
2017-07-18T01:25:44.518Z,18.50
2017-07-18T01:28:12.029Z,18.50
2017-07-18T01:30:43.840Z,18.50
2017-07-18T01:33:10.870Z,18.50
2017-07-18T01:35:39.317Z,18.50
2017-07-18T01:38:07.088Z,18.50
2017-07-18T01:40:35.280Z,18.40
2017-07-18T01:43:02.855Z,18.40
2017-07-18T01:45:30.963Z,18.40
2017-07-18T01:47:59.929Z,18.30
2017-07-18T01:50:27.975Z,18.40
2017-07-18T01:52:55.489Z,18.30
2017-07-18T01:55:23.022Z,18.30
2017-07-18T01:57:51.228Z,18.30
2017-07-18T02:00:18.774Z,18.20
2017-07-18T02:02:46.314Z,18.10
2017-07-18T02:05:14.576Z,18.10
2017-07-18T02:07:41.592Z,18.10
2017-07-18T02:10:09.453Z,18.10
2017-07-18T02:12:36.412Z,18.00
2017-07-18T02:15:03.425Z,18.10
2017-07-18T02:17:30.993Z,18.10
2017-07-18T02:22:31.630Z,18.00
2017-07-18T02:24:58.621Z,18.00
2017-07-18T02:27:25.694Z,18.00
2017-07-18T02:29:54.557Z,18.00
2017-07-18T02:32:22.145Z,18.00
2017-07-18T02:34:49.964Z,17.90
2017-07-18T02:37:20.987Z,17.90
2017-07-18T02:39:51.188Z,17.90
2017-07-18T02:42:18.991Z,17.90
2017-07-18T02:44:47.020Z,17.90
2017-07-18T02:47:15.384Z,17.90
2017-07-18T02:49:43.892Z,17.90
2017-07-18T02:52:12.800Z,17.80
2017-07-18T02:54:41.742Z,17.80
2017-07-18T02:57:11.041Z,17.80
2017-07-18T02:59:38.936Z,17.80
2017-07-18T03:02:06.098Z,17.80
2017-07-18T03:04:33.151Z,17.80
2017-07-18T03:07:00.643Z,17.70
2017-07-18T03:09:28.836Z,17.80
2017-07-18T03:11:56.772Z,17.80
2017-07-18T03:14:24.128Z,17.70
2017-07-18T03:16:53.544Z,17.70
2017-07-18T03:19:21.553Z,17.70
2017-07-18T03:21:51.363Z,17.70
2017-07-18T03:24:33.120Z,17.50
2017-07-18T03:27:01.006Z,17.60
2017-07-18T03:29:30.651Z,17.70
2017-07-18T03:31:58.185Z,17.70
2017-07-18T03:34:26.455Z,17.70
2017-07-18T03:36:55.482Z,17.70
2017-07-18T03:39:23.073Z,17.70
2017-07-18T03:41:50.768Z,17.60
2017-07-18T03:44:18.405Z,17.60
2017-07-18T03:46:47.445Z,17.60
2017-07-18T03:49:16.230Z,17.50
2017-07-18T03:51:50.390Z,17.50
2017-07-18T03:54:21.327Z,17.50
2017-07-18T03:56:53.736Z,17.50
2017-07-18T04:01:56.480Z,17.50
2017-07-18T04:04:23.396Z,17.60
2017-07-18T04:06:50.193Z,17.50
2017-07-18T04:09:17.075Z,17.50
2017-07-18T04:11:45.337Z,17.50
2017-07-18T04:14:12.157Z,17.50
2017-07-18T04:16:39.001Z,17.50
2017-07-18T04:19:05.834Z,17.50
2017-07-18T04:21:32.673Z,17.60
2017-07-18T04:23:59.468Z,17.60
2017-07-18T04:26:27.130Z,17.70
2017-07-18T04:28:54.446Z,17.70
2017-07-18T04:31:21.260Z,17.70
2017-07-18T04:33:48.108Z,17.80
2017-07-18T04:36:15.079Z,17.80
2017-07-18T04:38:41.905Z,17.80
2017-07-18T04:41:08.832Z,17.80
2017-07-18T04:43:35.798Z,17.80
2017-07-18T04:46:02.647Z,17.80
2017-07-18T04:48:29.673Z,17.90
2017-07-18T04:50:56.649Z,18.00
2017-07-18T04:53:23.741Z,18.00
2017-07-18T04:55:50.574Z,18.00
2017-07-18T04:58:17.608Z,18.00
2017-07-18T05:00:44.957Z,18.10
2017-07-18T05:03:12.234Z,18.20
2017-07-18T05:05:39.754Z,18.20
2017-07-18T05:08:07.167Z,18.30
2017-07-18T05:10:34.107Z,18.30
2017-07-18T05:13:01.310Z,18.40
2017-07-18T05:15:28.648Z,18.50
2017-07-18T05:17:55.979Z,18.50
2017-07-18T05:20:23.348Z,18.60
2017-07-18T05:22:50.346Z,18.60
2017-07-18T05:25:17.538Z,18.70
2017-07-18T05:27:44.865Z,18.80
2017-07-18T05:30:12.244Z,18.80
2017-07-18T05:32:39.163Z,18.90
2017-07-18T05:35:06.349Z,19.00
2017-07-18T05:37:33.540Z,19.10
2017-07-18T05:40:01.048Z,19.20
2017-07-18T05:42:29.920Z,19.20
2017-07-18T05:44:56.704Z,19.30
2017-07-18T05:47:23.533Z,19.40
2017-07-18T05:49:50.384Z,19.40
2017-07-18T05:52:17.198Z,19.50
2017-07-18T05:54:44.172Z,19.50
2017-07-18T05:57:11.348Z,19.60
2017-07-18T05:59:38.417Z,19.60
2017-07-18T06:02:05.249Z,19.70
2017-07-18T06:04:32.054Z,19.80
2017-07-18T06:06:59.305Z,19.80
2017-07-18T06:09:26.753Z,19.90
2017-07-18T06:11:53.736Z,20.00
2017-07-18T06:14:21.445Z,20.10
2017-07-18T06:16:48.563Z,20.20
2017-07-18T06:19:15.776Z,20.20
2017-07-18T06:21:43.218Z,20.30
2017-07-18T06:24:10.097Z,20.40
2017-07-18T06:26:37.145Z,20.40
2017-07-18T06:29:04.499Z,20.50
2017-07-18T06:31:31.261Z,20.60
2017-07-18T06:33:59.589Z,20.60
2017-07-18T06:36:26.961Z,20.70
2017-07-18T06:38:53.961Z,20.70
2017-07-18T06:41:22.567Z,20.70
2017-07-18T06:43:49.485Z,20.80
2017-07-18T06:46:17.384Z,20.80
2017-07-18T06:48:44.320Z,20.90
2017-07-18T06:51:11.821Z,21.00
2017-07-18T06:53:39.340Z,21.20
2017-07-18T06:56:07.303Z,21.20
2017-07-18T06:58:34.689Z,21.30
2017-07-18T07:01:01.616Z,21.40
2017-07-18T07:03:28.796Z,21.50
2017-07-18T07:05:57.006Z,21.60
2017-07-18T07:08:24.118Z,21.70
2017-07-18T07:10:52.398Z,21.80
2017-07-18T07:13:19.321Z,21.90
2017-07-18T07:15:46.231Z,21.90
2017-07-18T07:18:13.529Z,22.10
2017-07-18T07:20:40.325Z,22.20
2017-07-18T07:23:07.410Z,22.20
2017-07-18T07:25:34.327Z,22.30
2017-07-18T07:28:01.321Z,22.40
2017-07-18T07:30:28.631Z,22.40
2017-07-18T07:32:55.511Z,22.50
2017-07-18T07:35:22.446Z,22.60
2017-07-18T07:37:49.334Z,22.70
2017-07-18T07:40:16.222Z,22.90
2017-07-18T07:42:43.153Z,22.90
2017-07-18T07:45:10.132Z,23.00
2017-07-18T07:47:37.515Z,23.10
2017-07-18T07:50:04.449Z,23.10
2017-07-18T07:52:31.361Z,23.20
2017-07-18T07:54:58.165Z,23.30
2017-07-18T07:57:25.192Z,23.30
2017-07-18T07:59:52.156Z,23.20
2017-07-18T08:02:19.157Z,23.30
2017-07-18T08:04:46.260Z,23.40
2017-07-18T08:07:13.659Z,23.50
2017-07-18T08:09:41.975Z,23.70
2017-07-18T08:12:09.306Z,23.80
2017-07-18T08:14:36.133Z,23.80
2017-07-18T08:17:03.095Z,23.90
2017-07-18T08:19:30.173Z,24.00
2017-07-18T08:21:57.478Z,24.20
2017-07-18T08:24:27.522Z,24.10
2017-07-18T08:26:55.391Z,24.30
2017-07-18T08:29:23.229Z,24.20
2017-07-18T08:31:56.066Z,24.50
2017-07-18T08:34:23.219Z,24.60
2017-07-18T08:36:50.773Z,24.60
2017-07-18T08:39:17.911Z,24.60
2017-07-18T08:41:50.636Z,24.70
2017-07-18T08:44:18.176Z,24.80
2017-07-18T08:49:17.801Z,25.00
2017-07-18T08:51:46.168Z,25.10
2017-07-18T08:56:46.285Z,25.30
2017-07-18T08:59:13.277Z,25.50
2017-07-18T15:23:19.306Z,33.30
2017-07-18T15:25:46.137Z,33.40
2017-07-18T15:28:12.958Z,33.50
2017-07-18T15:30:39.859Z,33.50
2017-07-18T15:33:08.123Z,33.60
2017-07-18T15:35:34.930Z,33.50
2017-07-18T15:38:02.122Z,33.10
2017-07-18T15:40:28.981Z,33.00
2017-07-18T15:42:55.851Z,32.90
2017-07-18T15:45:23.062Z,32.90
2017-07-18T15:47:50.009Z,33.00
2017-07-18T15:50:16.907Z,33.00
2017-07-18T15:52:43.782Z,33.00
2017-07-18T15:55:10.625Z,33.00
2017-07-18T15:57:37.562Z,32.90
2017-07-18T16:00:04.713Z,32.80
2017-07-18T16:02:31.596Z,32.70
2017-07-18T16:04:58.388Z,32.60
2017-07-18T16:07:25.296Z,32.40
2017-07-18T16:09:52.261Z,32.20
2017-07-18T16:12:19.241Z,31.90
2017-07-18T16:14:46.100Z,31.70
2017-07-18T16:17:13.025Z,31.50
2017-07-18T16:19:39.989Z,31.30
2017-07-18T16:22:07.439Z,31.10
2017-07-18T16:24:34.473Z,30.90
2017-07-18T16:27:01.380Z,30.70
2017-07-18T16:29:31.532Z,30.50
2017-07-18T16:31:58.773Z,30.40
2017-07-18T16:34:25.591Z,30.40
2017-07-18T16:36:52.386Z,30.20
2017-07-18T16:39:19.221Z,30.10
2017-07-18T16:41:46.024Z,30.00
2017-07-18T16:44:12.827Z,29.90
2017-07-18T16:46:39.655Z,29.80
2017-07-18T16:49:06.961Z,29.60
2017-07-18T16:51:33.774Z,29.50
2017-07-18T16:54:00.714Z,29.40
2017-07-18T16:56:27.556Z,29.20
2017-07-18T16:58:54.339Z,29.10
2017-07-18T17:01:21.137Z,29.00
2017-07-18T17:03:48.081Z,28.80
2017-07-18T17:06:14.843Z,28.70
2017-07-18T17:08:41.577Z,28.60
2017-07-18T17:11:08.373Z,28.50
2017-07-18T17:13:35.134Z,28.40
2017-07-18T17:16:01.935Z,28.20
2017-07-18T17:18:28.744Z,28.10
2017-07-18T17:20:55.489Z,27.80
2017-07-18T17:23:24.059Z,27.50
2017-07-18T17:25:51.408Z,27.00
2017-07-18T17:28:18.188Z,26.40
2017-07-18T17:30:45.016Z,26.10
2017-07-18T17:33:11.910Z,25.80
2017-07-18T17:35:38.857Z,25.60
2017-07-18T17:38:06.669Z,25.50
2017-07-18T17:40:34.299Z,25.50
2017-07-18T17:43:01.364Z,25.40
2017-07-18T17:45:28.712Z,25.40
2017-07-18T17:47:56.237Z,25.40
2017-07-18T17:50:23.586Z,25.40
2017-07-18T17:52:50.519Z,25.40
2017-07-18T17:55:17.741Z,25.30
2017-07-18T17:57:44.545Z,25.10
2017-07-18T18:00:11.500Z,24.60
2017-07-18T18:02:38.318Z,24.40
2017-07-18T18:05:05.744Z,24.20
2017-07-18T18:07:33.332Z,24.10
2017-07-18T18:10:00.281Z,24.10
2017-07-18T18:12:27.387Z,24.00
2017-07-18T18:14:54.662Z,23.80
2017-07-18T18:17:21.937Z,23.70
2017-07-18T18:19:48.912Z,23.40
2017-07-18T18:22:16.038Z,23.20
2017-07-18T18:24:43.225Z,23.00
2017-07-18T18:27:10.640Z,23.00
2017-07-18T18:29:37.524Z,22.90
2017-07-18T18:32:04.662Z,22.90
2017-07-18T18:34:31.914Z,22.90
2017-07-18T18:36:59.241Z,22.90
2017-07-18T18:39:26.597Z,22.90
2017-07-18T18:41:53.775Z,22.80
2017-07-18T18:44:20.880Z,22.80
2017-07-18T18:46:48.196Z,22.80
2017-07-18T18:49:16.107Z,22.80
2017-07-18T18:51:43.455Z,22.70
2017-07-18T18:54:10.829Z,22.60
2017-07-18T18:56:37.689Z,22.60
2017-07-18T18:59:04.895Z,22.60
2017-07-18T19:01:31.697Z,22.50
2017-07-18T19:03:58.538Z,22.40
2017-07-18T19:06:25.383Z,22.30
2017-07-18T19:08:52.711Z,22.20
2017-07-18T19:11:19.678Z,22.10
2017-07-18T19:13:46.478Z,22.00
2017-07-18T19:16:13.856Z,22.00
2017-07-18T19:18:41.313Z,21.90
2017-07-18T19:21:08.247Z,21.90
2017-07-18T19:23:35.390Z,21.80
2017-07-18T19:26:02.294Z,21.70
2017-07-18T19:28:29.121Z,21.60
2017-07-18T19:30:55.898Z,21.60
2017-07-18T19:33:22.794Z,21.60
2017-07-18T19:35:49.855Z,21.60
2017-07-18T19:38:17.034Z,21.60
2017-07-18T19:40:44.464Z,21.60
2017-07-18T19:43:11.999Z,21.50
2017-07-18T19:45:38.961Z,21.50
2017-07-18T19:48:05.764Z,21.50
2017-07-18T19:50:33.558Z,21.30
2017-07-18T19:53:00.855Z,21.20
2017-07-18T19:55:29.376Z,21.10
2017-07-18T19:57:56.566Z,20.90
2017-07-18T20:00:23.541Z,20.80
2017-07-18T20:02:50.372Z,20.80
2017-07-18T20:05:17.268Z,20.80
2017-07-18T20:07:44.211Z,20.80
2017-07-18T20:10:11.105Z,20.70
2017-07-18T20:12:38.066Z,20.70
2017-07-18T20:15:04.897Z,20.60
2017-07-18T20:17:32.633Z,20.50
2017-07-18T20:25:18.545Z,20.40
2017-07-18T20:27:48.751Z,20.30
2017-07-18T20:30:16.096Z,20.30
2017-07-18T20:35:18.479Z,20.20
2017-07-18T20:37:45.421Z,20.10
2017-07-18T20:40:12.701Z,20.10
2017-07-18T20:42:40.113Z,20.10
2017-07-18T20:45:07.511Z,20.10
2017-07-18T20:47:35.015Z,20.20
2017-07-18T20:50:02.391Z,20.30
2017-07-18T20:52:29.340Z,20.30
2017-07-18T20:54:56.526Z,20.20
2017-07-18T20:57:23.884Z,20.20
2017-07-18T20:59:50.727Z,20.30
2017-07-18T21:02:17.838Z,20.30
2017-07-18T21:04:45.000Z,20.30
2017-07-18T21:07:12.490Z,20.30
2017-07-18T21:09:39.957Z,20.30
2017-07-18T21:12:07.327Z,20.10
2017-07-18T22:17:58.943Z,18.60
2017-07-18T22:20:41.255Z,18.60
2017-07-18T22:23:08.121Z,18.60
2017-07-18T22:25:35.960Z,18.60
2017-07-18T22:28:05.290Z,18.50
2017-07-18T22:30:32.524Z,18.50
2017-07-18T22:33:00.337Z,18.60
2017-07-18T22:35:28.501Z,18.60
2017-07-18T22:37:55.481Z,18.70
2017-07-18T22:40:22.904Z,18.60
2017-07-18T22:42:50.366Z,18.60
2017-07-18T22:45:17.942Z,18.60
2017-07-18T22:47:48.253Z,18.60
2017-07-18T22:50:15.710Z,18.60
2017-07-18T22:52:43.268Z,18.50
2017-07-18T22:55:10.370Z,18.60
2017-07-18T22:57:37.685Z,18.60
2017-07-18T23:00:04.868Z,18.70
2017-07-18T23:02:32.689Z,18.70
2017-07-18T23:04:59.725Z,18.60
2017-07-18T23:07:27.910Z,18.70
2017-07-18T23:09:56.176Z,18.60
2017-07-18T23:12:23.955Z,18.70
2017-07-18T23:14:51.023Z,18.70
2017-07-18T23:17:18.351Z,18.70
2017-07-18T23:19:46.717Z,18.70
2017-07-18T23:22:14.013Z,18.50
2017-07-18T23:24:42.495Z,18.70
2017-07-18T23:27:09.549Z,18.70
2017-07-18T23:29:36.759Z,18.70
2017-07-18T23:32:03.765Z,18.70
2017-07-18T23:34:36.561Z,18.60
2017-07-18T23:37:03.513Z,18.60
2017-07-18T23:39:31.377Z,18.60
2017-07-18T23:41:58.724Z,18.30
2017-07-18T23:44:26.289Z,18.30
2017-07-18T23:46:53.259Z,18.20
2017-07-18T23:49:20.355Z,18.10
2017-07-18T23:51:48.421Z,18.10
2017-07-18T23:54:16.476Z,18.00
2017-07-18T23:56:43.681Z,18.00
2017-07-18T23:59:11.030Z,18.00
